Canton, Connecticut
Current Conditions -  °F | °C
As of 11:51 AM on Thursday 30 Oct 2014 (Local Time) from KBDL Reporting Station
Broken Clouds Broken Clouds  
Wind Chill: 55°   Ceiling: 4000
Heat Index: 55°   Visibility: 10mi
Dew Point: 37°   Wind: 9mph
Humidity: 51%   Direction: 320°NW
Pressure: 29.96"   Gusts: NA
Location:  41.82°N, 72.89°W
Report Text: KBDL 301551Z 32008KT 10SM BKN040 BKN075 13/03 A2996 RMK AO2 SLP146 T01280028
Loading
Personal Weather Stations






























Interactive Weather Map
Tropical Storm Tracking
New forecast layout! Learn more

10-Day Weather Forecast

Advertisements
Track Severe Weather on mobile